sensor_id;sensor_type;location;lat;lon;timestamp;P1;durP1;ratioP1;P2;durP2;ratioP2
53052;SDS011;38934;52.690;6.184;2023-08-06T00:00:09;21.92;;;16.15;;
53052;SDS011;38934;52.690;6.184;2023-08-06T00:02:35;16.60;;;13.77;;
53052;SDS011;38934;52.690;6.184;2023-08-06T00:05:01;20.80;;;16.63;;
53052;SDS011;38934;52.690;6.184;2023-08-06T00:07:28;22.30;;;15.45;;
53052;SDS011;38934;52.690;6.184;2023-08-06T00:09:54;19.85;;;15.30;;
53052;SDS011;38934;52.690;6.184;2023-08-06T00:12:20;18.75;;;15.15;;
53052;SDS011;38934;52.690;6.184;2023-08-06T00:14:49;19.92;;;14.63;;
53052;SDS011;38934;52.690;6.184;2023-08-06T00:17:15;19.90;;;14.85;;
53052;SDS011;38934;52.690;6.184;2023-08-06T00:19:41;20.52;;;14.50;;
53052;SDS011;38934;52.690;6.184;2023-08-06T00:22:07;16.95;;;13.85;;
53052;SDS011;38934;52.690;6.184;2023-08-06T00:24:34;18.45;;;15.13;;
53052;SDS011;38934;52.690;6.184;2023-08-06T00:27:00;19.88;;;15.20;;
53052;SDS011;38934;52.690;6.184;2023-08-06T00:29:26;16.80;;;13.23;;
53052;SDS011;38934;52.690;6.184;2023-08-06T00:31:52;14.52;;;11.40;;
53052;SDS011;38934;52.690;6.184;2023-08-06T00:34:18;17.75;;;13.38;;
53052;SDS011;38934;52.690;6.184;2023-08-06T00:36:44;17.85;;;13.27;;
53052;SDS011;38934;52.690;6.184;2023-08-06T00:39:10;17.38;;;14.40;;
53052;SDS011;38934;52.690;6.184;2023-08-06T00:41:36;16.30;;;13.00;;
53052;SDS011;38934;52.690;6.184;2023-08-06T00:44:03;16.95;;;14.27;;
53052;SDS011;38934;52.690;6.184;2023-08-06T00:46:29;14.85;;;11.82;;
53052;SDS011;38934;52.690;6.184;2023-08-06T00:48:55;23.58;;;15.32;;
53052;SDS011;38934;52.690;6.184;2023-08-06T00:51:22;19.42;;;14.25;;
53052;SDS011;38934;52.690;6.184;2023-08-06T00:53:48;21.15;;;16.10;;
53052;SDS011;38934;52.690;6.184;2023-08-06T00:56:15;18.17;;;14.50;;
53052;SDS011;38934;52.690;6.184;2023-08-06T00:58:41;22.02;;;15.23;;
53052;SDS011;38934;52.690;6.184;2023-08-06T01:01:07;22.98;;;15.68;;
53052;SDS011;38934;52.690;6.184;2023-08-06T01:03:33;21.58;;;16.08;;
53052;SDS011;38934;52.690;6.184;2023-08-06T01:06:00;18.23;;;14.88;;
53052;SDS011;38934;52.690;6.184;2023-08-06T01:11:14;17.02;;;14.07;;
53052;SDS011;38934;52.690;6.184;2023-08-06T01:13:46;18.13;;;14.93;;
53052;SDS011;38934;52.690;6.184;2023-08-06T01:16:18;19.20;;;14.48;;
53052;SDS011;38934;52.690;6.184;2023-08-06T01:18:44;21.30;;;15.70;;
53052;SDS011;38934;52.690;6.184;2023-08-06T01:21:14;15.38;;;12.15;;
53052;SDS011;38934;52.690;6.184;2023-08-06T01:23:43;18.10;;;14.18;;
53052;SDS011;38934;52.690;6.184;2023-08-06T01:26:24;19.92;;;14.52;;
53052;SDS011;38934;52.690;6.184;2023-08-06T01:29:13;21.40;;;14.82;;
53052;SDS011;38934;52.690;6.184;2023-08-06T01:31:41;17.85;;;13.85;;
53052;SDS011;38934;52.690;6.184;2023-08-06T01:34:19;21.98;;;15.65;;
53052;SDS011;38934;52.690;6.184;2023-08-06T01:36:46;20.95;;;15.70;;
53052;SDS011;38934;52.690;6.184;2023-08-06T01:39:13;17.15;;;13.65;;
53052;SDS011;38934;52.690;6.184;2023-08-06T01:41:39;19.88;;;14.50;;
53052;SDS011;38934;52.690;6.184;2023-08-06T01:44:06;18.05;;;13.45;;
53052;SDS011;38934;52.690;6.184;2023-08-06T01:46:31;19.25;;;14.68;;
53052;SDS011;38934;52.690;6.184;2023-08-06T01:48:58;24.40;;;16.02;;
53052;SDS011;38934;52.690;6.184;2023-08-06T01:51:24;14.02;;;11.65;;
53052;SDS011;38934;52.690;6.184;2023-08-06T01:53:50;18.05;;;14.02;;
53052;SDS011;38934;52.690;6.184;2023-08-06T01:56:16;20.00;;;15.63;;
53052;SDS011;38934;52.690;6.184;2023-08-06T01:58:42;20.95;;;14.82;;
53052;SDS011;38934;52.690;6.184;2023-08-06T02:01:08;15.00;;;12.43;;
53052;SDS011;38934;52.690;6.184;2023-08-06T02:03:34;16.05;;;12.05;;
53052;SDS011;38934;52.690;6.184;2023-08-06T02:06:00;17.60;;;13.55;;
53052;SDS011;38934;52.690;6.184;2023-08-06T02:08:26;19.67;;;15.60;;
53052;SDS011;38934;52.690;6.184;2023-08-06T02:10:53;19.77;;;15.50;;
53052;SDS011;38934;52.690;6.184;2023-08-06T02:13:19;23.23;;;15.45;;
53052;SDS011;38934;52.690;6.184;2023-08-06T02:15:45;21.48;;;15.05;;
53052;SDS011;38934;52.690;6.184;2023-08-06T02:18:14;21.95;;;14.95;;
53052;SDS011;38934;52.690;6.184;2023-08-06T02:20:40;19.35;;;15.02;;
53052;SDS011;38934;52.690;6.184;2023-08-06T02:23:07;19.50;;;15.63;;
53052;SDS011;38934;52.690;6.184;2023-08-06T02:25:33;17.80;;;14.38;;
53052;SDS011;38934;52.690;6.184;2023-08-06T02:27:59;22.67;;;15.48;;
53052;SDS011;38934;52.690;6.184;2023-08-06T02:30:25;17.70;;;12.85;;
53052;SDS011;38934;52.690;6.184;2023-08-06T02:32:51;22.30;;;14.85;;
53052;SDS011;38934;52.690;6.184;2023-08-06T02:35:17;17.55;;;14.15;;
53052;SDS011;38934;52.690;6.184;2023-08-06T02:37:43;16.80;;;13.60;;
53052;SDS011;38934;52.690;6.184;2023-08-06T02:40:09;17.88;;;13.65;;
53052;SDS011;38934;52.690;6.184;2023-08-06T02:42:35;19.00;;;14.95;;
53052;SDS011;38934;52.690;6.184;2023-08-06T02:45:01;20.17;;;14.65;;
53052;SDS011;38934;52.690;6.184;2023-08-06T02:47:27;20.20;;;15.80;;
53052;SDS011;38934;52.690;6.184;2023-08-06T02:49:53;16.15;;;13.80;;
53052;SDS011;38934;52.690;6.184;2023-08-06T02:52:19;20.60;;;15.95;;
53052;SDS011;38934;52.690;6.184;2023-08-06T02:54:45;23.60;;;16.88;;
53052;SDS011;38934;52.690;6.184;2023-08-06T02:57:11;24.60;;;17.17;;
53052;SDS011;38934;52.690;6.184;2023-08-06T02:59:37;20.98;;;15.45;;
53052;SDS011;38934;52.690;6.184;2023-08-06T03:02:03;18.00;;;15.10;;
53052;SDS011;38934;52.690;6.184;2023-08-06T03:04:29;20.35;;;16.60;;
53052;SDS011;38934;52.690;6.184;2023-08-06T03:06:55;20.70;;;15.30;;
53052;SDS011;38934;52.690;6.184;2023-08-06T03:09:22;21.58;;;16.83;;
53052;SDS011;38934;52.690;6.184;2023-08-06T03:11:48;24.77;;;18.52;;
53052;SDS011;38934;52.690;6.184;2023-08-06T03:14:14;22.55;;;16.15;;
53052;SDS011;38934;52.690;6.184;2023-08-06T03:16:40;23.17;;;16.48;;
53052;SDS011;38934;52.690;6.184;2023-08-06T03:19:06;21.33;;;16.17;;
53052;SDS011;38934;52.690;6.184;2023-08-06T03:21:32;16.45;;;12.30;;
53052;SDS011;38934;52.690;6.184;2023-08-06T03:23:58;21.25;;;16.50;;
53052;SDS011;38934;52.690;6.184;2023-08-06T03:26:24;23.52;;;16.60;;
53052;SDS011;38934;52.690;6.184;2023-08-06T03:28:50;18.48;;;14.20;;
53052;SDS011;38934;52.690;6.184;2023-08-06T03:31:16;21.05;;;16.00;;
53052;SDS011;38934;52.690;6.184;2023-08-06T03:33:42;17.33;;;13.23;;
53052;SDS011;38934;52.690;6.184;2023-08-06T03:36:08;20.20;;;14.55;;
53052;SDS011;38934;52.690;6.184;2023-08-06T03:38:34;20.65;;;15.13;;
53052;SDS011;38934;52.690;6.184;2023-08-06T03:41:00;18.80;;;13.95;;
53052;SDS011;38934;52.690;6.184;2023-08-06T03:43:26;23.25;;;16.25;;
53052;SDS011;38934;52.690;6.184;2023-08-06T03:45:52;21.63;;;16.15;;
53052;SDS011;38934;52.690;6.184;2023-08-06T03:48:18;22.08;;;16.10;;
53052;SDS011;38934;52.690;6.184;2023-08-06T03:50:44;17.60;;;14.07;;
53052;SDS011;38934;52.690;6.184;2023-08-06T03:53:10;22.38;;;15.38;;
53052;SDS011;38934;52.690;6.184;2023-08-06T03:55:36;21.42;;;16.20;;
53052;SDS011;38934;52.690;6.184;2023-08-06T03:58:02;20.98;;;16.83;;
53052;SDS011;38934;52.690;6.184;2023-08-06T04:00:28;21.77;;;17.02;;
53052;SDS011;38934;52.690;6.184;2023-08-06T04:02:54;20.13;;;14.75;;
53052;SDS011;38934;52.690;6.184;2023-08-06T04:05:20;21.77;;;15.02;;
53052;SDS011;38934;52.690;6.184;2023-08-06T04:07:46;19.58;;;15.63;;
53052;SDS011;38934;52.690;6.184;2023-08-06T04:10:12;20.67;;;14.70;;
53052;SDS011;38934;52.690;6.184;2023-08-06T04:12:38;20.30;;;15.48;;
53052;SDS011;38934;52.690;6.184;2023-08-06T04:15:05;22.38;;;14.27;;
53052;SDS011;38934;52.690;6.184;2023-08-06T04:17:31;20.42;;;15.23;;
53052;SDS011;38934;52.690;6.184;2023-08-06T04:19:57;18.70;;;14.82;;
53052;SDS011;38934;52.690;6.184;2023-08-06T04:22:27;19.75;;;13.65;;
53052;SDS011;38934;52.690;6.184;2023-08-06T04:24:53;17.30;;;14.02;;
53052;SDS011;38934;52.690;6.184;2023-08-06T04:27:19;21.10;;;14.73;;
53052;SDS011;38934;52.690;6.184;2023-08-06T04:29:45;19.77;;;14.10;;
53052;SDS011;38934;52.690;6.184;2023-08-06T04:32:11;18.27;;;14.23;;
53052;SDS011;38934;52.690;6.184;2023-08-06T04:34:37;21.98;;;16.15;;
53052;SDS011;38934;52.690;6.184;2023-08-06T04:37:04;19.40;;;13.90;;
53052;SDS011;38934;52.690;6.184;2023-08-06T04:39:30;21.40;;;14.77;;
53052;SDS011;38934;52.690;6.184;2023-08-06T04:41:56;19.83;;;13.77;;
53052;SDS011;38934;52.690;6.184;2023-08-06T04:44:25;18.88;;;14.35;;
53052;SDS011;38934;52.690;6.184;2023-08-06T04:46:51;21.42;;;14.70;;
53052;SDS011;38934;52.690;6.184;2023-08-06T04:49:17;23.48;;;15.35;;
53052;SDS011;38934;52.690;6.184;2023-08-06T04:51:43;21.55;;;15.30;;
53052;SDS011;38934;52.690;6.184;2023-08-06T04:54:09;19.17;;;14.23;;
53052;SDS011;38934;52.690;6.184;2023-08-06T04:56:35;17.48;;;13.52;;
53052;SDS011;38934;52.690;6.184;2023-08-06T04:59:01;20.00;;;14.95;;
53052;SDS011;38934;52.690;6.184;2023-08-06T05:01:27;19.85;;;13.68;;
53052;SDS011;38934;52.690;6.184;2023-08-06T05:03:54;20.92;;;14.63;;
53052;SDS011;38934;52.690;6.184;2023-08-06T05:06:20;19.52;;;14.05;;
53052;SDS011;38934;52.690;6.184;2023-08-06T05:08:46;19.75;;;14.82;;
53052;SDS011;38934;52.690;6.184;2023-08-06T05:11:12;20.40;;;15.48;;
53052;SDS011;38934;52.690;6.184;2023-08-06T05:13:38;20.67;;;15.48;;
53052;SDS011;38934;52.690;6.184;2023-08-06T05:16:04;19.52;;;14.50;;
53052;SDS011;38934;52.690;6.184;2023-08-06T05:18:30;19.67;;;15.05;;
53052;SDS011;38934;52.690;6.184;2023-08-06T05:20:56;21.98;;;15.38;;
53052;SDS011;38934;52.690;6.184;2023-08-06T05:23:22;18.02;;;13.77;;
53052;SDS011;38934;52.690;6.184;2023-08-06T05:25:48;18.98;;;14.43;;
53052;SDS011;38934;52.690;6.184;2023-08-06T05:28:14;19.05;;;15.20;;
53052;SDS011;38934;52.690;6.184;2023-08-06T05:30:40;18.67;;;13.68;;
53052;SDS011;38934;52.690;6.184;2023-08-06T05:33:06;18.38;;;13.25;;
53052;SDS011;38934;52.690;6.184;2023-08-06T05:35:32;18.70;;;14.20;;
53052;SDS011;38934;52.690;6.184;2023-08-06T05:37:58;17.85;;;13.85;;
53052;SDS011;38934;52.690;6.184;2023-08-06T05:40:24;19.60;;;13.52;;
53052;SDS011;38934;52.690;6.184;2023-08-06T05:42:52;19.05;;;15.45;;
53052;SDS011;38934;52.690;6.184;2023-08-06T05:45:18;18.25;;;13.77;;
53052;SDS011;38934;52.690;6.184;2023-08-06T05:47:44;19.25;;;13.82;;
53052;SDS011;38934;52.690;6.184;2023-08-06T05:50:10;18.77;;;14.60;;
53052;SDS011;38934;52.690;6.184;2023-08-06T05:52:36;21.17;;;14.80;;
53052;SDS011;38934;52.690;6.184;2023-08-06T05:55:02;16.85;;;13.80;;
53052;SDS011;38934;52.690;6.184;2023-08-06T05:57:28;20.52;;;14.52;;
53052;SDS011;38934;52.690;6.184;2023-08-06T05:59:54;17.42;;;13.05;;
53052;SDS011;38934;52.690;6.184;2023-08-06T06:02:20;18.83;;;13.90;;
53052;SDS011;38934;52.690;6.184;2023-08-06T06:04:46;18.10;;;14.30;;
53052;SDS011;38934;52.690;6.184;2023-08-06T06:07:12;17.92;;;13.85;;
53052;SDS011;38934;52.690;6.184;2023-08-06T06:09:39;18.17;;;14.38;;
53052;SDS011;38934;52.690;6.184;2023-08-06T06:12:06;17.25;;;13.70;;
53052;SDS011;38934;52.690;6.184;2023-08-06T06:14:32;18.67;;;14.45;;
53052;SDS011;38934;52.690;6.184;2023-08-06T06:16:58;19.90;;;14.18;;
53052;SDS011;38934;52.690;6.184;2023-08-06T06:19:25;17.42;;;14.00;;
53052;SDS011;38934;52.690;6.184;2023-08-06T06:21:51;17.05;;;13.60;;
53052;SDS011;38934;52.690;6.184;2023-08-06T06:24:18;19.40;;;14.90;;
53052;SDS011;38934;52.690;6.184;2023-08-06T06:26:44;18.45;;;14.25;;
53052;SDS011;38934;52.690;6.184;2023-08-06T06:29:10;17.02;;;13.48;;
53052;SDS011;38934;52.690;6.184;2023-08-06T06:31:36;18.63;;;14.13;;
53052;SDS011;38934;52.690;6.184;2023-08-06T06:34:02;17.95;;;14.80;;
53052;SDS011;38934;52.690;6.184;2023-08-06T06:36:28;17.92;;;13.95;;
53052;SDS011;38934;52.690;6.184;2023-08-06T06:38:54;16.58;;;14.23;;
53052;SDS011;38934;52.690;6.184;2023-08-06T06:41:20;15.70;;;13.68;;
53052;SDS011;38934;52.690;6.184;2023-08-06T06:43:46;17.13;;;14.77;;
53052;SDS011;38934;52.690;6.184;2023-08-06T06:46:12;17.38;;;14.43;;
53052;SDS011;38934;52.690;6.184;2023-08-06T06:48:38;21.08;;;15.10;;
53052;SDS011;38934;52.690;6.184;2023-08-06T06:51:04;17.98;;;14.90;;
53052;SDS011;38934;52.690;6.184;2023-08-06T06:53:30;22.42;;;15.88;;
53052;SDS011;38934;52.690;6.184;2023-08-06T06:56:00;17.80;;;14.20;;
53052;SDS011;38934;52.690;6.184;2023-08-06T06:58:26;20.60;;;15.13;;
53052;SDS011;38934;52.690;6.184;2023-08-06T07:00:52;17.05;;;13.82;;
53052;SDS011;38934;52.690;6.184;2023-08-06T07:03:19;20.30;;;14.75;;
53052;SDS011;38934;52.690;6.184;2023-08-06T07:05:46;18.48;;;15.02;;
53052;SDS011;38934;52.690;6.184;2023-08-06T07:08:12;21.58;;;15.32;;
53052;SDS011;38934;52.690;6.184;2023-08-06T07:10:40;19.58;;;15.65;;
53052;SDS011;38934;52.690;6.184;2023-08-06T07:13:06;16.23;;;14.05;;
53052;SDS011;38934;52.690;6.184;2023-08-06T07:15:32;19.70;;;15.95;;
53052;SDS011;38934;52.690;6.184;2023-08-06T07:17:58;18.77;;;15.15;;
53052;SDS011;38934;52.690;6.184;2023-08-06T07:20:24;18.52;;;14.88;;
53052;SDS011;38934;52.690;6.184;2023-08-06T07:22:50;20.95;;;15.38;;
53052;SDS011;38934;52.690;6.184;2023-08-06T07:25:16;17.98;;;15.30;;
53052;SDS011;38934;52.690;6.184;2023-08-06T07:27:42;21.08;;;15.90;;
53052;SDS011;38934;52.690;6.184;2023-08-06T07:30:08;17.52;;;15.20;;
53052;SDS011;38934;52.690;6.184;2023-08-06T07:32:34;18.38;;;15.18;;
53052;SDS011;38934;52.690;6.184;2023-08-06T07:35:00;19.20;;;15.90;;
53052;SDS011;38934;52.690;6.184;2023-08-06T07:37:27;20.05;;;16.52;;
53052;SDS011;38934;52.690;6.184;2023-08-06T07:39:54;18.35;;;16.35;;
53052;SDS011;38934;52.690;6.184;2023-08-06T07:42:20;21.17;;;16.85;;
53052;SDS011;38934;52.690;6.184;2023-08-06T07:44:53;20.98;;;17.92;;
53052;SDS011;38934;52.690;6.184;2023-08-06T07:47:19;18.70;;;16.23;;
53052;SDS011;38934;52.690;6.184;2023-08-06T07:49:45;22.23;;;17.13;;
53052;SDS011;38934;52.690;6.184;2023-08-06T07:52:11;17.92;;;16.00;;
53052;SDS011;38934;52.690;6.184;2023-08-06T07:54:38;20.55;;;16.30;;
53052;SDS011;38934;52.690;6.184;2023-08-06T07:57:04;18.50;;;16.20;;
53052;SDS011;38934;52.690;6.184;2023-08-06T07:59:30;18.50;;;16.23;;
53052;SDS011;38934;52.690;6.184;2023-08-06T08:01:56;18.25;;;15.98;;
53052;SDS011;38934;52.690;6.184;2023-08-06T08:04:22;18.63;;;16.63;;
53052;SDS011;38934;52.690;6.184;2023-08-06T08:06:49;18.15;;;16.25;;
53052;SDS011;38934;52.690;6.184;2023-08-06T08:09:15;20.58;;;16.20;;
53052;SDS011;38934;52.690;6.184;2023-08-06T08:11:41;18.45;;;16.05;;
53052;SDS011;38934;52.690;6.184;2023-08-06T08:14:07;19.17;;;16.45;;
53052;SDS011;38934;52.690;6.184;2023-08-06T08:16:33;18.90;;;16.95;;
53052;SDS011;38934;52.690;6.184;2023-08-06T08:18:59;21.50;;;16.63;;
53052;SDS011;38934;52.690;6.184;2023-08-06T08:21:26;18.50;;;16.17;;
53052;SDS011;38934;52.690;6.184;2023-08-06T08:23:52;17.13;;;15.32;;
53052;SDS011;38934;52.690;6.184;2023-08-06T08:26:18;21.52;;;15.82;;
53052;SDS011;38934;52.690;6.184;2023-08-06T08:28:44;19.10;;;17.13;;
53052;SDS011;38934;52.690;6.184;2023-08-06T08:31:10;20.02;;;16.85;;
53052;SDS011;38934;52.690;6.184;2023-08-06T08:33:40;17.67;;;15.60;;
53052;SDS011;38934;52.690;6.184;2023-08-06T08:36:06;17.92;;;14.82;;
53052;SDS011;38934;52.690;6.184;2023-08-06T08:38:32;17.27;;;15.48;;
53052;SDS011;38934;52.690;6.184;2023-08-06T08:40:58;16.25;;;14.55;;
53052;SDS011;38934;52.690;6.184;2023-08-06T08:43:24;16.50;;;14.80;;
53052;SDS011;38934;52.690;6.184;2023-08-06T08:45:50;17.05;;;15.25;;
53052;SDS011;38934;52.690;6.184;2023-08-06T08:48:17;14.52;;;13.02;;
53052;SDS011;38934;52.690;6.184;2023-08-06T08:50:44;15.02;;;13.43;;
53052;SDS011;38934;52.690;6.184;2023-08-06T08:53:11;16.58;;;13.27;;
53052;SDS011;38934;52.690;6.184;2023-08-06T08:55:37;14.20;;;12.70;;
53052;SDS011;38934;52.690;6.184;2023-08-06T08:58:04;16.52;;;12.85;;
53052;SDS011;38934;52.690;6.184;2023-08-06T09:00:30;14.25;;;12.75;;
53052;SDS011;38934;52.690;6.184;2023-08-06T09:02:56;13.07;;;11.43;;
53052;SDS011;38934;52.690;6.184;2023-08-06T09:05:24;12.95;;;11.65;;
53052;SDS011;38934;52.690;6.184;2023-08-06T09:07:50;13.57;;;12.07;;
53052;SDS011;38934;52.690;6.184;2023-08-06T09:10:18;14.98;;;11.60;;
53052;SDS011;38934;52.690;6.184;2023-08-06T09:12:46;12.57;;;11.27;;
53052;SDS011;38934;52.690;6.184;2023-08-06T09:15:12;11.85;;;10.65;;
53052;SDS011;38934;52.690;6.184;2023-08-06T09:17:39;12.68;;;11.38;;
53052;SDS011;38934;52.690;6.184;2023-08-06T09:20:14;11.70;;;10.60;;
53052;SDS011;38934;52.690;6.184;2023-08-06T09:22:40;13.00;;;11.40;;
53052;SDS011;38934;52.690;6.184;2023-08-06T09:25:07;12.60;;;11.07;;
53052;SDS011;38934;52.690;6.184;2023-08-06T09:27:38;14.30;;;12.25;;
53052;SDS011;38934;52.690;6.184;2023-08-06T09:30:05;12.20;;;10.90;;
53052;SDS011;38934;52.690;6.184;2023-08-06T09:32:44;12.25;;;11.05;;
53052;SDS011;38934;52.690;6.184;2023-08-06T09:35:15;11.80;;;10.70;;
53052;SDS011;38934;52.690;6.184;2023-08-06T09:37:41;12.18;;;10.88;;
53052;SDS011;38934;52.690;6.184;2023-08-06T09:40:27;11.88;;;10.68;;
53052;SDS011;38934;52.690;6.184;2023-08-06T09:42:53;10.82;;;9.75;;
53052;SDS011;38934;52.690;6.184;2023-08-06T09:45:20;11.48;;;10.38;;
53052;SDS011;38934;52.690;6.184;2023-08-06T09:47:50;12.10;;;10.77;;
53052;SDS011;38934;52.690;6.184;2023-08-06T09:50:16;12.15;;;10.07;;
53052;SDS011;38934;52.690;6.184;2023-08-06T09:52:43;11.85;;;10.70;;
53052;SDS011;38934;52.690;6.184;2023-08-06T09:55:13;11.15;;;10.05;;
53052;SDS011;38934;52.690;6.184;2023-08-06T09:57:39;12.20;;;10.95;;
53052;SDS011;38934;52.690;6.184;2023-08-06T10:00:07;11.05;;;9.95;;
53052;SDS011;38934;52.690;6.184;2023-08-06T10:02:34;10.95;;;9.82;;
53052;SDS011;38934;52.690;6.184;2023-08-06T10:05:01;11.07;;;9.52;;
53052;SDS011;38934;52.690;6.184;2023-08-06T10:07:27;9.73;;;8.73;;
53052;SDS011;38934;52.690;6.184;2023-08-06T10:09:55;8.75;;;7.95;;
53052;SDS011;38934;52.690;6.184;2023-08-06T10:12:21;8.55;;;7.63;;
53052;SDS011;38934;52.690;6.184;2023-08-06T10:14:48;8.07;;;6.85;;
53052;SDS011;38934;52.690;6.184;2023-08-06T10:17:15;11.98;;;6.70;;
53052;SDS011;38934;52.690;6.184;2023-08-06T10:19:42;7.55;;;6.72;;
53052;SDS011;38934;52.690;6.184;2023-08-06T10:22:09;7.57;;;6.70;;
53052;SDS011;38934;52.690;6.184;2023-08-06T10:24:52;8.02;;;6.50;;
53052;SDS011;38934;52.690;6.184;2023-08-06T10:29:47;10.73;;;6.80;;
53052;SDS011;38934;52.690;6.184;2023-08-06T10:32:14;6.90;;;6.20;;
53052;SDS011;38934;52.690;6.184;2023-08-06T10:34:53;6.47;;;5.78;;
53052;SDS011;38934;52.690;6.184;2023-08-06T10:37:20;9.18;;;6.40;;
53052;SDS011;38934;52.690;6.184;2023-08-06T10:39:48;6.75;;;6.00;;
53052;SDS011;38934;52.690;6.184;2023-08-06T10:42:19;10.73;;;7.40;;
53052;SDS011;38934;52.690;6.184;2023-08-06T10:45:19;7.15;;;6.45;;
53052;SDS011;38934;52.690;6.184;2023-08-06T10:47:39;8.07;;;6.50;;
53052;SDS011;38934;52.690;6.184;2023-08-06T10:50:06;6.88;;;5.72;;
53052;SDS011;38934;52.690;6.184;2023-08-06T10:52:32;6.07;;;5.47;;
53052;SDS011;38934;52.690;6.184;2023-08-06T10:54:58;6.93;;;5.93;;
53052;SDS011;38934;52.690;6.184;2023-08-06T10:57:25;7.03;;;5.60;;
53052;SDS011;38934;52.690;6.184;2023-08-06T10:59:51;7.90;;;5.45;;
53052;SDS011;38934;52.690;6.184;2023-08-06T11:02:17;8.35;;;5.90;;
53052;SDS011;38934;52.690;6.184;2023-08-06T11:04:43;6.65;;;5.88;;
53052;SDS011;38934;52.690;6.184;2023-08-06T11:07:09;7.97;;;6.00;;
53052;SDS011;38934;52.690;6.184;2023-08-06T11:09:36;7.25;;;5.95;;
53052;SDS011;38934;52.690;6.184;2023-08-06T11:12:03;26.67;;;12.25;;
53052;SDS011;38934;52.690;6.184;2023-08-06T11:14:31;11.88;;;6.68;;
53052;SDS011;38934;52.690;6.184;2023-08-06T11:16:57;10.40;;;5.80;;
53052;SDS011;38934;52.690;6.184;2023-08-06T11:19:23;10.65;;;6.28;;
53052;SDS011;38934;52.690;6.184;2023-08-06T11:21:51;9.43;;;5.60;;
53052;SDS011;38934;52.690;6.184;2023-08-06T11:24:17;5.75;;;5.13;;
53052;SDS011;38934;52.690;6.184;2023-08-06T11:26:43;5.30;;;4.80;;
53052;SDS011;38934;52.690;6.184;2023-08-06T11:29:09;8.25;;;5.30;;
53052;SDS011;38934;52.690;6.184;2023-08-06T11:31:35;8.93;;;6.78;;
53052;SDS011;38934;52.690;6.184;2023-08-06T11:34:02;10.95;;;6.00;;
53052;SDS011;38934;52.690;6.184;2023-08-06T11:36:31;6.88;;;5.55;;
53052;SDS011;38934;52.690;6.184;2023-08-06T11:38:58;8.38;;;6.15;;
53052;SDS011;38934;52.690;6.184;2023-08-06T11:41:24;6.10;;;4.85;;
53052;SDS011;38934;52.690;6.184;2023-08-06T11:43:51;5.15;;;3.40;;
53052;SDS011;38934;52.690;6.184;2023-08-06T11:46:17;3.53;;;3.10;;
53052;SDS011;38934;52.690;6.184;2023-08-06T11:48:54;4.30;;;3.40;;
53052;SDS011;38934;52.690;6.184;2023-08-06T11:51:26;5.03;;;3.30;;
53052;SDS011;38934;52.690;6.184;2023-08-06T11:53:56;3.85;;;3.20;;
53052;SDS011;38934;52.690;6.184;2023-08-06T11:56:22;3.75;;;3.20;;
53052;SDS011;38934;52.690;6.184;2023-08-06T11:58:48;3.88;;;3.17;;
53052;SDS011;38934;52.690;6.184;2023-08-06T12:01:14;4.53;;;3.40;;
53052;SDS011;38934;52.690;6.184;2023-08-06T12:03:40;5.28;;;3.03;;
53052;SDS011;38934;52.690;6.184;2023-08-06T12:06:06;3.72;;;3.10;;
53052;SDS011;38934;52.690;6.184;2023-08-06T12:08:33;4.13;;;3.08;;
53052;SDS011;38934;52.690;6.184;2023-08-06T12:10:59;5.07;;;3.28;;
53052;SDS011;38934;52.690;6.184;2023-08-06T12:13:25;6.18;;;2.92;;
53052;SDS011;38934;52.690;6.184;2023-08-06T12:15:51;3.40;;;3.05;;
53052;SDS011;38934;52.690;6.184;2023-08-06T12:18:18;4.07;;;3.08;;
53052;SDS011;38934;52.690;6.184;2023-08-06T12:20:44;3.35;;;2.80;;
53052;SDS011;38934;52.690;6.184;2023-08-06T12:23:11;5.72;;;3.50;;
53052;SDS011;38934;52.690;6.184;2023-08-06T12:25:40;4.30;;;3.20;;
53052;SDS011;38934;52.690;6.184;2023-08-06T12:28:06;4.45;;;3.40;;
53052;SDS011;38934;52.690;6.184;2023-08-06T12:30:33;4.22;;;3.60;;
53052;SDS011;38934;52.690;6.184;2023-08-06T12:32:59;3.78;;;3.15;;
53052;SDS011;38934;52.690;6.184;2023-08-06T12:35:25;3.47;;;3.17;;
53052;SDS011;38934;52.690;6.184;2023-08-06T12:37:51;4.03;;;3.33;;
53052;SDS011;38934;52.690;6.184;2023-08-06T12:40:19;4.35;;;3.35;;
53052;SDS011;38934;52.690;6.184;2023-08-06T12:42:45;4.93;;;3.30;;
53052;SDS011;38934;52.690;6.184;2023-08-06T12:45:12;6.60;;;3.20;;
53052;SDS011;38934;52.690;6.184;2023-08-06T12:47:39;4.03;;;3.58;;
53052;SDS011;38934;52.690;6.184;2023-08-06T12:50:05;5.28;;;3.75;;
53052;SDS011;38934;52.690;6.184;2023-08-06T12:52:31;5.78;;;3.53;;
53052;SDS011;38934;52.690;6.184;2023-08-06T12:54:57;6.25;;;4.00;;
53052;SDS011;38934;52.690;6.184;2023-08-06T12:57:23;4.78;;;3.75;;
53052;SDS011;38934;52.690;6.184;2023-08-06T12:59:49;6.18;;;3.90;;
53052;SDS011;38934;52.690;6.184;2023-08-06T13:02:15;4.95;;;3.92;;
53052;SDS011;38934;52.690;6.184;2023-08-06T13:04:41;4.88;;;4.18;;
53052;SDS011;38934;52.690;6.184;2023-08-06T13:07:07;4.53;;;4.00;;
53052;SDS011;38934;52.690;6.184;2023-08-06T13:09:34;4.60;;;3.80;;
53052;SDS011;38934;52.690;6.184;2023-08-06T13:12:00;4.65;;;3.70;;
53052;SDS011;38934;52.690;6.184;2023-08-06T13:14:30;8.63;;;3.88;;
53052;SDS011;38934;52.690;6.184;2023-08-06T13:16:56;6.25;;;3.88;;
53052;SDS011;38934;52.690;6.184;2023-08-06T13:19:22;5.07;;;4.20;;
53052;SDS011;38934;52.690;6.184;2023-08-06T13:24:17;5.78;;;4.22;;
53052;SDS011;38934;52.690;6.184;2023-08-06T13:26:43;5.45;;;3.88;;
53052;SDS011;38934;52.690;6.184;2023-08-06T13:29:09;4.70;;;4.13;;
53052;SDS011;38934;52.690;6.184;2023-08-06T13:31:36;4.68;;;3.60;;
53052;SDS011;38934;52.690;6.184;2023-08-06T13:34:02;4.55;;;3.97;;
53052;SDS011;38934;52.690;6.184;2023-08-06T13:36:29;5.75;;;4.40;;
53052;SDS011;38934;52.690;6.184;2023-08-06T13:38:55;6.57;;;4.50;;
53052;SDS011;38934;52.690;6.184;2023-08-06T13:41:22;5.72;;;4.97;;
53052;SDS011;38934;52.690;6.184;2023-08-06T13:43:48;8.35;;;5.68;;
53052;SDS011;38934;52.690;6.184;2023-08-06T13:46:14;7.03;;;6.13;;
53052;SDS011;38934;52.690;6.184;2023-08-06T13:48:44;8.98;;;6.47;;
53052;SDS011;38934;52.690;6.184;2023-08-06T13:51:11;8.40;;;7.32;;
53052;SDS011;38934;52.690;6.184;2023-08-06T13:53:40;9.20;;;6.95;;
53052;SDS011;38934;52.690;6.184;2023-08-06T13:56:07;8.85;;;7.95;;
53052;SDS011;38934;52.690;6.184;2023-08-06T13:58:34;10.68;;;7.88;;
53052;SDS011;38934;52.690;6.184;2023-08-06T14:01:00;9.40;;;7.95;;
53052;SDS011;38934;52.690;6.184;2023-08-06T14:03:26;10.45;;;8.35;;
53052;SDS011;38934;52.690;6.184;2023-08-06T14:05:52;13.68;;;9.02;;
53052;SDS011;38934;52.690;6.184;2023-08-06T14:08:21;11.82;;;8.43;;
53052;SDS011;38934;52.690;6.184;2023-08-06T14:10:48;10.00;;;7.78;;
53052;SDS011;38934;52.690;6.184;2023-08-06T14:13:14;10.25;;;8.23;;
53052;SDS011;38934;52.690;6.184;2023-08-06T14:15:40;9.82;;;8.40;;
53052;SDS011;38934;52.690;6.184;2023-08-06T14:18:08;10.18;;;8.32;;
53052;SDS011;38934;52.690;6.184;2023-08-06T14:20:35;11.05;;;9.55;;
53052;SDS011;38934;52.690;6.184;2023-08-06T14:23:00;11.48;;;9.18;;
53052;SDS011;38934;52.690;6.184;2023-08-06T14:25:26;10.93;;;9.00;;
53052;SDS011;38934;52.690;6.184;2023-08-06T14:27:52;12.70;;;9.85;;
53052;SDS011;38934;52.690;6.184;2023-08-06T14:30:19;11.13;;;9.07;;
53052;SDS011;38934;52.690;6.184;2023-08-06T14:32:45;19.60;;;10.80;;